sensor_id;sensor_type;location;lat;lon;timestamp;pressure;altitude;pressure_sealevel;temperature;humidity
7918;BME280;4004;42.624;23.386;2023-05-23T00:00:41;94026.38;;;11.71;100.00
7918;BME280;4004;42.624;23.386;2023-05-23T00:03:08;94027.53;;;11.70;100.00
7918;BME280;4004;42.624;23.386;2023-05-23T00:05:36;94025.56;;;11.67;100.00
7918;BME280;4004;42.624;23.386;2023-05-23T00:08:03;94028.31;;;11.70;100.00
7918;BME280;4004;42.624;23.386;2023-05-23T00:10:30;94026.28;;;11.64;100.00
7918;BME280;4004;42.624;23.386;2023-05-23T00:12:56;94024.03;;;11.66;100.00
7918;BME280;4004;42.624;23.386;2023-05-23T00:15:23;94022.03;;;11.62;100.00
7918;BME280;4004;42.624;23.386;2023-05-23T00:17:50;94013.34;;;11.46;100.00
7918;BME280;4004;42.624;23.386;2023-05-23T00:20:17;94015.03;;;11.54;100.00
7918;BME280;4004;42.624;23.386;2023-05-23T00:22:46;94017.56;;;11.44;100.00
7918;BME280;4004;42.624;23.386;2023-05-23T00:25:13;94016.88;;;11.50;100.00
7918;BME280;4004;42.624;23.386;2023-05-23T00:27:40;94009.91;;;11.46;100.00
7918;BME280;4004;42.624;23.386;2023-05-23T00:30:07;94014.50;;;11.45;100.00
7918;BME280;4004;42.624;23.386;2023-05-23T00:32:34;94010.00;;;11.53;100.00
7918;BME280;4004;42.624;23.386;2023-05-23T00:35:01;94004.25;;;11.54;100.00
7918;BME280;4004;42.624;23.386;2023-05-23T00:37:28;94004.59;;;11.53;100.00
7918;BME280;4004;42.624;23.386;2023-05-23T00:39:56;94008.38;;;11.48;100.00
7918;BME280;4004;42.624;23.386;2023-05-23T00:42:22;93995.00;;;11.52;100.00
7918;BME280;4004;42.624;23.386;2023-05-23T00:44:49;93993.94;;;11.33;100.00
7918;BME280;4004;42.624;23.386;2023-05-23T00:47:16;93992.75;;;11.31;100.00
7918;BME280;4004;42.624;23.386;2023-05-23T00:49:43;94003.53;;;11.31;100.00
7918;BME280;4004;42.624;23.386;2023-05-23T00:52:10;94004.25;;;11.28;100.00
7918;BME280;4004;42.624;23.386;2023-05-23T00:54:38;94000.41;;;11.29;100.00
7918;BME280;4004;42.624;23.386;2023-05-23T00:57:06;93998.47;;;11.26;100.00
7918;BME280;4004;42.624;23.386;2023-05-23T00:59:35;93997.63;;;11.22;100.00
7918;BME280;4004;42.624;23.386;2023-05-23T01:02:02;94005.69;;;11.22;100.00
7918;BME280;4004;42.624;23.386;2023-05-23T01:04:29;94002.13;;;11.14;100.00
7918;BME280;4004;42.624;23.386;2023-05-23T01:06:58;93998.22;;;11.11;100.00
7918;BME280;4004;42.624;23.386;2023-05-23T01:09:27;94005.88;;;11.09;100.00
7918;BME280;4004;42.624;23.386;2023-05-23T01:12:01;94012.47;;;11.12;100.00
7918;BME280;4004;42.624;23.386;2023-05-23T01:14:34;94010.13;;;11.10;100.00
7918;BME280;4004;42.624;23.386;2023-05-23T01:17:08;94012.41;;;11.08;100.00
7918;BME280;4004;42.624;23.386;2023-05-23T01:19:58;94006.25;;;11.08;100.00
7918;BME280;4004;42.624;23.386;2023-05-23T01:22:37;94012.75;;;11.07;100.00
7918;BME280;4004;42.624;23.386;2023-05-23T01:25:22;94003.03;;;10.98;100.00
7918;BME280;4004;42.624;23.386;2023-05-23T01:27:56;93999.69;;;11.05;100.00
7918;BME280;4004;42.624;23.386;2023-05-23T01:30:29;94003.16;;;11.06;100.00
7918;BME280;4004;42.624;23.386;2023-05-23T01:32:58;94009.78;;;11.12;100.00
7918;BME280;4004;42.624;23.386;2023-05-23T01:35:26;94012.09;;;11.13;100.00
7918;BME280;4004;42.624;23.386;2023-05-23T01:37:54;94020.31;;;11.20;100.00
7918;BME280;4004;42.624;23.386;2023-05-23T01:40:21;94007.22;;;11.23;100.00
7918;BME280;4004;42.624;23.386;2023-05-23T01:42:48;94009.22;;;11.26;100.00
7918;BME280;4004;42.624;23.386;2023-05-23T01:45:18;94005.38;;;11.27;100.00
7918;BME280;4004;42.624;23.386;2023-05-23T01:47:47;93998.38;;;11.22;100.00
7918;BME280;4004;42.624;23.386;2023-05-23T01:50:15;93999.56;;;11.25;100.00
7918;BME280;4004;42.624;23.386;2023-05-23T01:52:43;93996.38;;;11.15;100.00
7918;BME280;4004;42.624;23.386;2023-05-23T01:55:13;93990.88;;;11.08;100.00
7918;BME280;4004;42.624;23.386;2023-05-23T01:57:45;94002.00;;;11.07;100.00
7918;BME280;4004;42.624;23.386;2023-05-23T02:00:14;94005.41;;;11.04;100.00
7918;BME280;4004;42.624;23.386;2023-05-23T02:02:42;93997.78;;;11.06;100.00
7918;BME280;4004;42.624;23.386;2023-05-23T02:05:09;93991.91;;;11.00;100.00
7918;BME280;4004;42.624;23.386;2023-05-23T02:07:36;93996.94;;;11.02;100.00
7918;BME280;4004;42.624;23.386;2023-05-23T02:10:06;94003.47;;;11.01;100.00
7918;BME280;4004;42.624;23.386;2023-05-23T02:12:33;93992.69;;;10.77;100.00
7918;BME280;4004;42.624;23.386;2023-05-23T02:15:00;93998.81;;;10.74;100.00
7918;BME280;4004;42.624;23.386;2023-05-23T02:17:26;94000.00;;;10.77;100.00
7918;BME280;4004;42.624;23.386;2023-05-23T02:19:55;94002.69;;;10.77;100.00
7918;BME280;4004;42.624;23.386;2023-05-23T02:22:22;93996.41;;;10.69;100.00
7918;BME280;4004;42.624;23.386;2023-05-23T02:24:50;93995.59;;;10.65;100.00
7918;BME280;4004;42.624;23.386;2023-05-23T02:27:17;93999.75;;;10.63;100.00
7918;BME280;4004;42.624;23.386;2023-05-23T02:29:44;93999.56;;;10.52;100.00
7918;BME280;4004;42.624;23.386;2023-05-23T02:32:11;94001.41;;;10.48;100.00
7918;BME280;4004;42.624;23.386;2023-05-23T02:34:38;94002.91;;;10.45;100.00
7918;BME280;4004;42.624;23.386;2023-05-23T02:37:06;94002.50;;;10.43;100.00
7918;BME280;4004;42.624;23.386;2023-05-23T02:39:34;93993.78;;;10.50;100.00
7918;BME280;4004;42.624;23.386;2023-05-23T02:42:00;93982.09;;;10.42;100.00
7918;BME280;4004;42.624;23.386;2023-05-23T02:44:27;93987.84;;;10.41;100.00
7918;BME280;4004;42.624;23.386;2023-05-23T02:46:54;93985.59;;;10.43;100.00
7918;BME280;4004;42.624;23.386;2023-05-23T02:49:21;93986.47;;;10.50;100.00
7918;BME280;4004;42.624;23.386;2023-05-23T02:51:47;93987.47;;;10.42;100.00
7918;BME280;4004;42.624;23.386;2023-05-23T02:54:16;93992.31;;;10.33;100.00
7918;BME280;4004;42.624;23.386;2023-05-23T02:56:43;93980.09;;;10.16;100.00
7918;BME280;4004;42.624;23.386;2023-05-23T02:59:10;93982.06;;;10.00;100.00
7918;BME280;4004;42.624;23.386;2023-05-23T03:01:38;93986.53;;;9.92;100.00
7918;BME280;4004;42.624;23.386;2023-05-23T03:04:04;93983.63;;;9.81;100.00
7918;BME280;4004;42.624;23.386;2023-05-23T03:06:31;93982.97;;;9.68;100.00
7918;BME280;4004;42.624;23.386;2023-05-23T03:08:58;93977.97;;;9.67;100.00
7918;BME280;4004;42.624;23.386;2023-05-23T03:11:26;93980.81;;;9.74;100.00
7918;BME280;4004;42.624;23.386;2023-05-23T03:13:54;93981.50;;;9.71;100.00
7918;BME280;4004;42.624;23.386;2023-05-23T03:16:21;93991.47;;;9.90;100.00
7918;BME280;4004;42.624;23.386;2023-05-23T03:18:48;93993.94;;;9.99;100.00
7918;BME280;4004;42.624;23.386;2023-05-23T03:21:14;93988.09;;;10.32;100.00
7918;BME280;4004;42.624;23.386;2023-05-23T03:23:41;93990.97;;;10.66;100.00
7918;BME280;4004;42.624;23.386;2023-05-23T03:26:08;93984.31;;;11.06;100.00
7918;BME280;4004;42.624;23.386;2023-05-23T03:28:36;93994.00;;;11.64;100.00
7918;BME280;4004;42.624;23.386;2023-05-23T03:31:03;93991.50;;;12.08;100.00
7918;BME280;4004;42.624;23.386;2023-05-23T03:33:30;93998.06;;;12.85;100.00
7918;BME280;4004;42.624;23.386;2023-05-23T03:35:56;93999.69;;;13.45;100.00
7918;BME280;4004;42.624;23.386;2023-05-23T03:38:23;94018.63;;;14.26;100.00
7918;BME280;4004;42.624;23.386;2023-05-23T03:40:50;94018.44;;;15.13;100.00
7918;BME280;4004;42.624;23.386;2023-05-23T03:43:17;94025.00;;;15.81;99.15
7918;BME280;4004;42.624;23.386;2023-05-23T03:45:45;94025.41;;;15.72;93.26
7918;BME280;4004;42.624;23.386;2023-05-23T03:48:12;94027.31;;;15.93;92.52
7918;BME280;4004;42.624;23.386;2023-05-23T03:50:39;94025.53;;;16.53;87.34
7918;BME280;4004;42.624;23.386;2023-05-23T03:53:05;94022.00;;;17.26;83.14
7918;BME280;4004;42.624;23.386;2023-05-23T03:55:32;94028.13;;;17.83;78.84
7918;BME280;4004;42.624;23.386;2023-05-23T03:57:59;94029.28;;;18.88;68.73
7918;BME280;4004;42.624;23.386;2023-05-23T04:00:26;94025.03;;;19.61;62.13
7918;BME280;4004;42.624;23.386;2023-05-23T04:02:54;94025.16;;;20.81;57.50
7918;BME280;4004;42.624;23.386;2023-05-23T04:05:21;94028.59;;;21.71;53.23
7918;BME280;4004;42.624;23.386;2023-05-23T04:07:48;94025.69;;;22.07;50.74
7918;BME280;4004;42.624;23.386;2023-05-23T04:10:15;94030.47;;;22.91;48.61
7918;BME280;4004;42.624;23.386;2023-05-23T04:12:42;94031.28;;;23.30;47.12
7918;BME280;4004;42.624;23.386;2023-05-23T04:15:09;94033.56;;;22.51;48.34
7918;BME280;4004;42.624;23.386;2023-05-23T04:17:36;94032.03;;;20.29;52.22
7918;BME280;4004;42.624;23.386;2023-05-23T04:20:07;94020.00;;;19.09;57.28
7918;BME280;4004;42.624;23.386;2023-05-23T04:22:35;94025.03;;;18.53;60.41
7918;BME280;4004;42.624;23.386;2023-05-23T04:25:02;94021.88;;;18.23;62.77
7918;BME280;4004;42.624;23.386;2023-05-23T04:27:29;94022.19;;;18.29;62.92
7918;BME280;4004;42.624;23.386;2023-05-23T04:29:56;94022.69;;;18.20;62.86
7918;BME280;4004;42.624;23.386;2023-05-23T04:32:25;94018.91;;;17.69;65.06
7918;BME280;4004;42.624;23.386;2023-05-23T04:34:51;94022.88;;;17.61;65.83
7918;BME280;4004;42.624;23.386;2023-05-23T04:37:20;94026.41;;;17.58;66.88
7918;BME280;4004;42.624;23.386;2023-05-23T04:39:51;94023.31;;;18.32;65.13
7918;BME280;4004;42.624;23.386;2023-05-23T04:42:17;94029.16;;;18.95;62.18
7918;BME280;4004;42.624;23.386;2023-05-23T04:44:49;94029.41;;;19.04;61.16
7918;BME280;4004;42.624;23.386;2023-05-23T04:47:16;94028.44;;;19.18;60.57
7918;BME280;4004;42.624;23.386;2023-05-23T04:49:43;94033.28;;;19.58;59.38
7918;BME280;4004;42.624;23.386;2023-05-23T04:52:10;94035.75;;;20.39;57.56
7918;BME280;4004;42.624;23.386;2023-05-23T04:54:39;94035.72;;;21.16;55.38
7918;BME280;4004;42.624;23.386;2023-05-23T04:57:09;94035.78;;;21.81;52.62
7918;BME280;4004;42.624;23.386;2023-05-23T04:59:36;94035.69;;;22.30;51.85
7918;BME280;4004;42.624;23.386;2023-05-23T05:02:04;94038.88;;;22.29;51.06
7918;BME280;4004;42.624;23.386;2023-05-23T05:04:31;94044.31;;;21.67;52.22
7918;BME280;4004;42.624;23.386;2023-05-23T05:06:58;94052.50;;;20.81;54.08
7918;BME280;4004;42.624;23.386;2023-05-23T05:09:24;94046.69;;;19.96;55.73
7918;BME280;4004;42.624;23.386;2023-05-23T05:11:53;94050.22;;;19.18;59.21
7918;BME280;4004;42.624;23.386;2023-05-23T05:14:19;94057.16;;;18.65;62.07
7918;BME280;4004;42.624;23.386;2023-05-23T05:16:46;94052.72;;;18.48;63.77
7918;BME280;4004;42.624;23.386;2023-05-23T05:19:14;94048.34;;;18.54;64.97
7918;BME280;4004;42.624;23.386;2023-05-23T05:21:41;94058.00;;;18.58;65.31
7918;BME280;4004;42.624;23.386;2023-05-23T05:24:08;94054.72;;;18.43;66.23
7918;BME280;4004;42.624;23.386;2023-05-23T05:26:35;94056.66;;;18.05;68.88
7918;BME280;4004;42.624;23.386;2023-05-23T05:29:03;94051.59;;;17.66;72.86
7918;BME280;4004;42.624;23.386;2023-05-23T05:31:30;94048.09;;;17.16;75.61
7918;BME280;4004;42.624;23.386;2023-05-23T05:33:57;94057.28;;;16.63;81.21
7918;BME280;4004;42.624;23.386;2023-05-23T05:36:24;94056.28;;;16.21;88.37
7918;BME280;4004;42.624;23.386;2023-05-23T05:38:50;94058.28;;;15.99;91.40
7918;BME280;4004;42.624;23.386;2023-05-23T05:41:18;94057.13;;;15.82;93.64
7918;BME280;4004;42.624;23.386;2023-05-23T05:43:44;94060.59;;;16.04;94.66
7918;BME280;4004;42.624;23.386;2023-05-23T05:46:12;94050.69;;;16.61;88.68
7918;BME280;4004;42.624;23.386;2023-05-23T05:48:39;94062.97;;;17.50;83.51
7918;BME280;4004;42.624;23.386;2023-05-23T05:51:06;94062.19;;;19.01;73.55
7918;BME280;4004;42.624;23.386;2023-05-23T05:53:33;94063.31;;;20.25;64.70
7918;BME280;4004;42.624;23.386;2023-05-23T05:55:59;94074.63;;;21.40;59.93
7918;BME280;4004;42.624;23.386;2023-05-23T05:58:26;94067.16;;;22.39;56.53
7918;BME280;4004;42.624;23.386;2023-05-23T06:00:53;94071.13;;;23.34;53.66
7918;BME280;4004;42.624;23.386;2023-05-23T06:03:22;94064.69;;;24.71;50.25
7918;BME280;4004;42.624;23.386;2023-05-23T06:05:48;94060.75;;;25.75;47.73
7918;BME280;4004;42.624;23.386;2023-05-23T06:08:15;94064.41;;;26.59;45.38
7918;BME280;4004;42.624;23.386;2023-05-23T06:10:42;94067.88;;;27.05;43.91
7918;BME280;4004;42.624;23.386;2023-05-23T06:13:09;94066.47;;;27.19;42.58
7918;BME280;4004;42.624;23.386;2023-05-23T06:15:36;94064.06;;;26.94;43.11
7918;BME280;4004;42.624;23.386;2023-05-23T06:18:02;94071.81;;;27.41;41.59
7918;BME280;4004;42.624;23.386;2023-05-23T06:20:30;94072.75;;;27.20;42.41
7918;BME280;4004;42.624;23.386;2023-05-23T06:22:57;94081.59;;;27.42;42.04
7918;BME280;4004;42.624;23.386;2023-05-23T06:25:24;94071.22;;;27.19;41.93
7918;BME280;4004;42.624;23.386;2023-05-23T06:27:51;94072.22;;;26.51;43.92
7918;BME280;4004;42.624;23.386;2023-05-23T06:30:17;94073.09;;;26.94;42.62
7918;BME280;4004;42.624;23.386;2023-05-23T06:32:45;94070.22;;;26.42;43.76
7918;BME280;4004;42.624;23.386;2023-05-23T06:35:11;94073.53;;;26.10;44.55
7918;BME280;4004;42.624;23.386;2023-05-23T06:37:39;94073.09;;;26.02;45.00
7918;BME280;4004;42.624;23.386;2023-05-23T06:40:10;94072.66;;;25.72;45.65
7918;BME280;4004;42.624;23.386;2023-05-23T06:42:37;94072.19;;;25.24;45.81
7918;BME280;4004;42.624;23.386;2023-05-23T06:45:05;94077.44;;;24.87;46.75
7918;BME280;4004;42.624;23.386;2023-05-23T06:47:32;94073.50;;;24.66;46.98
7918;BME280;4004;42.624;23.386;2023-05-23T06:49:59;94069.78;;;24.25;47.87
7918;BME280;4004;42.624;23.386;2023-05-23T06:52:25;94079.44;;;23.95;48.86
7918;BME280;4004;42.624;23.386;2023-05-23T06:54:53;94072.09;;;23.66;50.22
7918;BME280;4004;42.624;23.386;2023-05-23T06:57:20;94060.03;;;23.38;50.99
7918;BME280;4004;42.624;23.386;2023-05-23T06:59:47;94070.66;;;23.23;51.51
7918;BME280;4004;42.624;23.386;2023-05-23T07:02:14;94057.50;;;23.31;51.88
7918;BME280;4004;42.624;23.386;2023-05-23T07:04:40;94054.53;;;23.64;51.37
7918;BME280;4004;42.624;23.386;2023-05-23T07:07:07;94055.25;;;23.90;50.93
7918;BME280;4004;42.624;23.386;2023-05-23T07:09:34;94059.91;;;23.67;52.47
7918;BME280;4004;42.624;23.386;2023-05-23T07:12:02;94058.94;;;23.23;52.42
7918;BME280;4004;42.624;23.386;2023-05-23T07:14:29;94052.44;;;23.16;54.66
7918;BME280;4004;42.624;23.386;2023-05-23T07:16:55;94049.81;;;23.00;53.87
7918;BME280;4004;42.624;23.386;2023-05-23T07:19:22;94044.72;;;22.98;55.00
7918;BME280;4004;42.624;23.386;2023-05-23T07:21:49;94042.13;;;22.53;56.46
7918;BME280;4004;42.624;23.386;2023-05-23T07:24:15;94043.72;;;22.38;56.79
7918;BME280;4004;42.624;23.386;2023-05-23T07:26:42;94043.97;;;21.98;58.96
7918;BME280;4004;42.624;23.386;2023-05-23T07:29:10;94039.81;;;21.44;61.96
7918;BME280;4004;42.624;23.386;2023-05-23T07:31:37;94039.25;;;21.32;63.98
7918;BME280;4004;42.624;23.386;2023-05-23T07:34:03;94033.22;;;21.41;63.08
7918;BME280;4004;42.624;23.386;2023-05-23T07:36:30;94035.31;;;21.33;64.57
7918;BME280;4004;42.624;23.386;2023-05-23T07:38:59;94034.44;;;21.57;65.24
7918;BME280;4004;42.624;23.386;2023-05-23T07:41:26;94025.34;;;21.60;63.61
7918;BME280;4004;42.624;23.386;2023-05-23T07:43:53;94029.50;;;21.81;62.29
7918;BME280;4004;42.624;23.386;2023-05-23T07:46:21;94026.16;;;21.89;64.77
7918;BME280;4004;42.624;23.386;2023-05-23T07:48:48;94026.84;;;21.93;63.97
7918;BME280;4004;42.624;23.386;2023-05-23T07:51:14;94024.84;;;22.10;61.96
7918;BME280;4004;42.624;23.386;2023-05-23T07:53:45;94022.63;;;22.22;63.01
7918;BME280;4004;42.624;23.386;2023-05-23T07:56:12;94017.84;;;22.09;61.19
7918;BME280;4004;42.624;23.386;2023-05-23T07:58:39;94026.03;;;22.09;61.19
7918;BME280;4004;42.624;23.386;2023-05-23T08:01:05;94018.25;;;22.24;63.16
7918;BME280;4004;42.624;23.386;2023-05-23T08:03:34;94019.00;;;22.25;63.11
7918;BME280;4004;42.624;23.386;2023-05-23T08:06:01;94025.69;;;22.07;64.28
7918;BME280;4004;42.624;23.386;2023-05-23T08:08:28;94017.63;;;21.87;60.90
7918;BME280;4004;42.624;23.386;2023-05-23T08:10:55;94010.31;;;21.68;64.42
7918;BME280;4004;42.624;23.386;2023-05-23T08:13:21;94013.63;;;21.76;63.88
7918;BME280;4004;42.624;23.386;2023-05-23T08:15:48;94010.34;;;21.97;63.00
7918;BME280;4004;42.624;23.386;2023-05-23T08:18:15;94012.81;;;21.91;63.01
7918;BME280;4004;42.624;23.386;2023-05-23T08:20:43;94012.25;;;21.84;61.86
7918;BME280;4004;42.624;23.386;2023-05-23T08:23:10;94013.84;;;21.98;62.30
7918;BME280;4004;42.624;23.386;2023-05-23T08:25:38;94017.31;;;21.69;65.13
7918;BME280;4004;42.624;23.386;2023-05-23T08:28:05;94012.63;;;21.53;65.37
7918;BME280;4004;42.624;23.386;2023-05-23T08:30:32;94011.50;;;21.67;62.67
7918;BME280;4004;42.624;23.386;2023-05-23T08:32:59;94020.19;;;21.78;63.36
7918;BME280;4004;42.624;23.386;2023-05-23T08:35:28;94009.72;;;21.77;65.55
7918;BME280;4004;42.624;23.386;2023-05-23T08:38:01;94005.69;;;21.65;63.98
7918;BME280;4004;42.624;23.386;2023-05-23T08:40:30;94011.84;;;21.52;61.96
7918;BME280;4004;42.624;23.386;2023-05-23T08:42:57;94012.84;;;21.59;62.70
7918;BME280;4004;42.624;23.386;2023-05-23T08:45:23;94004.50;;;21.66;64.33
7918;BME280;4004;42.624;23.386;2023-05-23T08:47:51;94016.34;;;21.76;63.07
7918;BME280;4004;42.624;23.386;2023-05-23T08:50:18;94007.91;;;21.70;63.69
7918;BME280;4004;42.624;23.386;2023-05-23T08:52:52;94008.97;;;21.43;65.14
7918;BME280;4004;42.624;23.386;2023-05-23T08:55:23;94005.78;;;21.45;66.99
7918;BME280;4004;42.624;23.386;2023-05-23T08:57:51;94010.53;;;21.24;66.49
7918;BME280;4004;42.624;23.386;2023-05-23T09:00:18;93999.78;;;21.17;70.56
7918;BME280;4004;42.624;23.386;2023-05-23T09:02:45;94005.81;;;21.08;70.07
7918;BME280;4004;42.624;23.386;2023-05-23T09:05:12;94009.75;;;21.07;66.47
7918;BME280;4004;42.624;23.386;2023-05-23T09:07:40;94001.34;;;20.98;66.97
7918;BME280;4004;42.624;23.386;2023-05-23T09:10:08;94006.66;;;21.05;60.85
7918;BME280;4004;42.624;23.386;2023-05-23T09:12:37;94004.69;;;20.89;63.47
7918;BME280;4004;42.624;23.386;2023-05-23T09:15:04;94000.19;;;20.99;61.17
7918;BME280;4004;42.624;23.386;2023-05-23T09:17:32;94002.22;;;21.11;63.89
7918;BME280;4004;42.624;23.386;2023-05-23T09:19:59;93995.94;;;21.15;59.37
7918;BME280;4004;42.624;23.386;2023-05-23T09:22:26;93995.41;;;21.20;59.61
7918;BME280;4004;42.624;23.386;2023-05-23T09:24:54;93993.28;;;21.11;52.64
7918;BME280;4004;42.624;23.386;2023-05-23T09:27:22;93993.69;;;21.09;50.18
7918;BME280;4004;42.624;23.386;2023-05-23T09:29:50;93995.41;;;21.03;46.96
7918;BME280;4004;42.624;23.386;2023-05-23T09:32:18;93995.13;;;21.14;49.69
7918;BME280;4004;42.624;23.386;2023-05-23T09:34:54;93996.00;;;20.95;47.50
7918;BME280;4004;42.624;23.386;2023-05-23T09:37:21;93989.22;;;20.83;51.44
7918;BME280;4004;42.624;23.386;2023-05-23T09:39:49;93994.38;;;20.97;52.80
7918;BME280;4004;42.624;23.386;2023-05-23T09:42:20;93992.44;;;20.78;49.42
7918;BME280;4004;42.624;23.386;2023-05-23T09:44:47;93989.25;;;20.63;49.87
7918;BME280;4004;42.624;23.386;2023-05-23T09:47:16;93993.13;;;20.45;45.58
7918;BME280;4004;42.624;23.386;2023-05-23T09:49:45;93984.28;;;20.38;49.98
7918;BME280;4004;42.624;23.386;2023-05-23T09:52:12;93979.69;;;20.35;49.61
7918;BME280;4004;42.624;23.386;2023-05-23T09:54:39;93978.66;;;20.45;49.76
7918;BME280;4004;42.624;23.386;2023-05-23T09:57:09;93977.66;;;20.39;48.85
7918;BME280;4004;42.624;23.386;2023-05-23T09:59:39;93978.97;;;20.31;49.75
7918;BME280;4004;42.624;23.386;2023-05-23T10:02:09;93980.84;;;20.34;47.14
7918;BME280;4004;42.624;23.386;2023-05-23T10:04:38;93973.44;;;20.34;49.61
7918;BME280;4004;42.624;23.386;2023-05-23T10:07:12;93985.06;;;20.38;50.21
7918;BME280;4004;42.624;23.386;2023-05-23T10:09:46;93969.59;;;20.32;49.21
7918;BME280;4004;42.624;23.386;2023-05-23T10:12:41;93964.84;;;20.16;50.92
7918;BME280;4004;42.624;23.386;2023-05-23T10:15:13;93965.31;;;20.31;49.42
7918;BME280;4004;42.624;23.386;2023-05-23T10:20:35;93970.44;;;20.28;50.52
7918;BME280;4004;42.624;23.386;2023-05-23T10:23:03;93965.47;;;20.23;49.13
7918;BME280;4004;42.624;23.386;2023-05-23T10:25:30;93958.59;;;20.35;49.50
7918;BME280;4004;42.624;23.386;2023-05-23T10:27:58;93958.75;;;20.28;47.64
7918;BME280;4004;42.624;23.386;2023-05-23T10:30:26;93953.63;;;20.30;46.74
7918;BME280;4004;42.624;23.386;2023-05-23T10:32:54;93943.56;;;20.07;48.87
7918;BME280;4004;42.624;23.386;2023-05-23T10:35:29;93951.03;;;20.23;51.22
7918;BME280;4004;42.624;23.386;2023-05-23T10:38:02;93947.63;;;20.39;51.08
7918;BME280;4004;42.624;23.386;2023-05-23T10:40:33;93942.75;;;20.46;49.87
7918;BME280;4004;42.624;23.386;2023-05-23T10:43:09;93951.72;;;20.47;50.92
7918;BME280;4004;42.624;23.386;2023-05-23T10:45:39;93948.03;;;20.57;46.41
7918;BME280;4004;42.624;23.386;2023-05-23T10:48:19;93937.69;;;20.65;45.64
7918;BME280;4004;42.624;23.386;2023-05-23T10:51:00;93954.09;;;20.65;45.59
7918;BME280;4004;42.624;23.386;2023-05-23T10:53:30;93939.66;;;20.64;45.32
7918;BME280;4004;42.624;23.386;2023-05-23T10:55:57;93942.56;;;20.57;43.66
7918;BME280;4004;42.624;23.386;2023-05-23T10:58:24;93940.97;;;20.56;44.72
7918;BME280;4004;42.624;23.386;2023-05-23T11:00:52;93928.19;;;20.53;43.28
7918;BME280;4004;42.624;23.386;2023-05-23T11:03:30;93936.06;;;20.67;43.12
7918;BME280;4004;42.624;23.386;2023-05-23T11:05:58;93929.88;;;20.83;43.72
7918;BME280;4004;42.624;23.386;2023-05-23T11:08:26;93933.13;;;20.95;45.04
7918;BME280;4004;42.624;23.386;2023-05-23T11:10:58;93922.03;;;21.02;44.34
7918;BME280;4004;42.624;23.386;2023-05-23T11:13:25;93918.44;;;21.05;44.82
7918;BME280;4004;42.624;23.386;2023-05-23T11:16:29;93923.91;;;21.21;46.75
7918;BME280;4004;42.624;23.386;2023-05-23T11:19:24;93924.69;;;21.22;45.20
7918;BME280;4004;42.624;23.386;2023-05-23T11:21:54;93920.69;;;21.10;43.38
7918;BME280;4004;42.624;23.386;2023-05-23T11:24:21;93914.88;;;21.08;41.08
7918;BME280;4004;42.624;23.386;2023-05-23T11:26:54;93910.84;;;21.13;41.36
7918;BME280;4004;42.624;23.386;2023-05-23T11:29:26;93917.00;;;21.17;42.76
7918;BME280;4004;42.624;23.386;2023-05-23T11:31:53;93915.25;;;21.23;43.39
7918;BME280;4004;42.624;23.386;2023-05-23T11:34:20;93930.97;;;21.19;40.53
7918;BME280;4004;42.624;23.386;2023-05-23T11:36:51;93918.69;;;21.10;42.77
7918;BME280;4004;42.624;23.386;2023-05-23T11:39:18;93911.88;;;21.02;43.63
7918;BME280;4004;42.624;23.386;2023-05-23T11:41:53;93900.41;;;21.07;44.54
7918;BME280;4004;42.624;23.386;2023-05-23T11:44:25;93905.72;;;21.15;42.70
7918;BME280;4004;42.624;23.386;2023-05-23T11:46:59;93894.25;;;21.20;43.80
7918;BME280;4004;42.624;23.386;2023-05-23T11:49:27;93903.16;;;21.24;43.03
7918;BME280;4004;42.624;23.386;2023-05-23T11:51:54;93899.19;;;21.25;41.92
7918;BME280;4004;42.624;23.386;2023-05-23T11:54:22;93907.06;;;21.23;42.69
7918;BME280;4004;42.624;23.386;2023-05-23T11:56:49;93896.47;;;21.25;44.01
7918;BME280;4004;42.624;23.386;2023-05-23T11:59:16;93894.41;;;21.29;43.07
7918;BME280;4004;42.624;23.386;2023-05-23T12:01:44;93896.38;;;21.28;43.95
7918;BME280;4004;42.624;23.386;2023-05-23T12:04:11;93896.97;;;21.36;41.82
7918;BME280;4004;42.624;23.386;2023-05-23T12:06:38;93884.59;;;21.31;42.65
7918;BME280;4004;42.624;23.386;2023-05-23T12:09:06;93893.31;;;21.26;41.51
7918;BME280;4004;42.624;23.386;2023-05-23T12:11:33;93871.78;;;21.28;42.66
7918;BME280;4004;42.624;23.386;2023-05-23T12:14:00;93878.78;;;21.29;41.85
7918;BME280;4004;42.624;23.386;2023-05-23T12:16:30;93894.06;;;21.27;41.98
7918;BME280;4004;42.624;23.386;2023-05-23T12:18:59;93885.72;;;21.18;41.43
7918;BME280;4004;42.624;23.386;2023-05-23T12:21:39;93893.06;;;21.21;42.57
7918;BME280;4004;42.624;23.386;2023-05-23T12:24:12;93881.13;;;21.15;42.39
7918;BME280;4004;42.624;23.386;2023-05-23T12:26:45;93894.25;;;21.20;42.89
7918;BME280;4004;42.624;23.386;2023-05-23T12:29:12;93869.31;;;21.18;41.00
7918;BME280;4004;42.624;23.386;2023-05-23T12:31:39;93861.53;;;21.16;42.03
7918;BME280;4004;42.624;23.386;2023-05-23T12:34:07;93857.16;;;21.19;41.78
7918;BME280;4004;42.624;23.386;2023-05-23T12:36:33;93862.91;;;21.24;41.61
7918;BME280;4004;42.624;23.386;2023-05-23T12:39:03;93858.97;;;21.42;41.82
7918;BME280;4004;42.624;23.386;2023-05-23T12:41:31;93862.38;;;21.46;43.40
7918;BME280;4004;42.624;23.386;2023-05-23T12:43:58;93854.41;;;21.51;41.79
7918;BME280;4004;42.624;23.386;2023-05-23T12:46:26;93847.28;;;21.54;41.52
7918;BME280;4004;42.624;23.386;2023-05-23T12:48:53;93849.69;;;21.52;42.13
7918;BME280;4004;42.624;23.386;2023-05-23T12:51:21;93846.34;;;21.61;41.97
7918;BME280;4004;42.624;23.386;2023-05-23T12:53:48;93837.47;;;21.57;42.17
7918;BME280;4004;42.624;23.386;2023-05-23T12:56:15;93828.81;;;21.58;40.71
7918;BME280;4004;42.624;23.386;2023-05-23T12:58:42;93840.34;;;21.66;40.83
7918;BME280;4004;42.624;23.386;2023-05-23T13:01:08;93847.47;;;21.63;39.63
7918;BME280;4004;42.624;23.386;2023-05-23T13:03:35;93838.59;;;21.59;37.87
7918;BME280;4004;42.624;23.386;2023-05-23T13:06:02;93847.84;;;21.49;39.17
7918;BME280;4004;42.624;23.386;2023-05-23T13:08:30;93842.94;;;21.57;38.60
7918;BME280;4004;42.624;23.386;2023-05-23T13:10:57;93843.25;;;21.59;37.88
7918;BME280;4004;42.624;23.386;2023-05-23T13:13:25;93829.69;;;21.55;38.99
7918;BME280;4004;42.624;23.386;2023-05-23T13:15:52;93836.81;;;21.65;37.09